createdAt,value
2018-04-11T06:04:40.414Z,8.70
2018-04-11T06:07:42.899Z,8.63
2018-04-11T06:10:45.375Z,9.33
2018-04-11T06:13:47.850Z,9.00
2018-04-11T06:16:50.370Z,9.07
2018-04-11T06:19:52.854Z,8.53
2018-04-11T06:22:55.336Z,9.50
2018-04-11T06:25:57.796Z,9.50
2018-04-11T06:29:00.249Z,9.13
2018-04-11T06:32:03.482Z,9.37
2018-04-11T06:35:05.957Z,9.23
2018-04-11T06:38:09.157Z,9.13
2018-04-11T06:41:11.610Z,9.80
2018-04-11T06:44:14.073Z,9.83
2018-04-11T06:47:17.321Z,10.00
2018-04-11T06:50:19.757Z,11.53
2018-04-11T06:53:22.217Z,9.93
2018-04-11T06:56:25.445Z,10.20
2018-04-11T06:59:27.942Z,10.40
2018-04-11T07:02:30.370Z,8.53
2018-04-11T07:05:33.611Z,8.83
2018-04-11T07:08:36.046Z,8.63
2018-04-11T07:11:39.268Z,9.50
2018-04-11T07:14:41.715Z,8.83
2018-04-11T07:17:44.946Z,8.70
2018-04-11T07:20:47.401Z,9.20
2018-04-11T07:23:49.877Z,8.90
2018-04-11T07:26:52.325Z,9.80
2018-04-11T07:29:55.733Z,10.33
2018-04-11T07:32:58.184Z,10.87
2018-04-11T07:36:00.637Z,10.03
2018-04-11T07:39:03.098Z,9.83
2018-04-11T07:42:05.570Z,10.43
2018-04-11T07:45:08.006Z,10.60
2018-04-11T07:48:11.229Z,10.70
2018-04-11T07:51:13.678Z,11.60
2018-04-11T07:54:16.920Z,11.00
2018-04-11T07:57:19.378Z,10.73
2018-04-11T08:00:21.825Z,11.37
2018-04-11T08:03:25.091Z,11.23
2018-04-11T08:06:27.510Z,11.70
2018-04-11T08:09:30.742Z,11.80
2018-04-11T08:12:33.230Z,11.77
2018-04-11T08:15:35.675Z,11.40
2018-04-11T08:18:38.137Z,11.47
2018-04-11T08:21:41.355Z,11.27
2018-04-11T08:24:43.810Z,11.60
2018-04-11T08:27:46.282Z,11.93
2018-04-11T08:30:49.494Z,11.30
2018-04-11T08:33:51.953Z,11.63
2018-04-11T08:36:55.174Z,11.90
2018-04-11T08:39:57.630Z,12.00
2018-04-11T08:43:00.094Z,11.83
2018-04-11T08:46:03.333Z,11.70
2018-04-11T08:49:05.797Z,10.83
2018-04-11T08:52:15.678Z,11.47
2018-04-11T08:55:18.125Z,11.03
2018-04-11T08:58:20.594Z,11.30
2018-04-11T09:01:23.065Z,11.30
2018-04-11T09:04:25.554Z,10.33
2018-04-11T09:07:28.750Z,11.23
2018-04-11T09:10:31.206Z,11.30
2018-04-11T09:13:33.670Z,10.97
2018-04-11T09:16:36.927Z,11.07
2018-04-11T09:19:39.416Z,11.13
2018-04-11T09:22:41.890Z,10.70
2018-04-11T09:25:44.299Z,10.90
2018-04-11T09:32:30.134Z,11.63
2018-04-11T09:35:32.610Z,11.43
2018-04-11T09:38:35.078Z,11.87
2018-04-11T09:41:38.294Z,12.03
2018-04-11T09:44:40.761Z,11.43
2018-04-11T09:47:44.133Z,11.47
2018-04-11T09:50:47.454Z,10.93
2018-04-11T09:53:49.962Z,10.67
2018-04-11T09:56:52.543Z,11.30
2018-04-11T09:59:55.306Z,11.20
2018-04-11T10:03:11.385Z,11.50
2018-04-11T10:06:13.978Z,11.20
2018-04-11T10:09:16.421Z,11.57
2018-04-11T10:12:19.642Z,11.13
2018-04-11T10:15:22.107Z,11.83
2018-04-11T10:18:24.565Z,10.97
2018-04-11T10:21:27.010Z,12.00
2018-04-11T10:24:30.706Z,11.57
2018-04-11T10:27:33.177Z,11.23
2018-04-11T10:30:35.619Z,12.50
2018-04-11T10:33:38.090Z,12.87
2018-04-11T10:36:41.295Z,12.53
2018-04-11T10:39:43.810Z,13.00
2018-04-11T10:42:46.982Z,12.47
2018-04-11T10:45:49.437Z,12.87
2018-04-11T10:48:52.658Z,12.50
2018-04-11T10:51:55.128Z,12.17
2018-04-11T10:54:57.577Z,12.80
2018-04-11T10:58:00.801Z,12.30
2018-04-11T11:01:03.255Z,10.63
2018-04-11T11:04:05.715Z,10.27
2018-04-11T11:07:08.930Z,10.27
2018-04-11T11:10:11.410Z,9.43
2018-04-11T11:13:13.884Z,10.70
2018-04-11T11:16:16.330Z,12.70
2018-04-11T11:19:18.810Z,12.63
2018-04-11T11:22:21.255Z,12.70
2018-04-11T11:25:23.721Z,13.90
2018-04-11T11:28:26.176Z,15.43
2018-04-11T11:31:28.624Z,15.83
2018-04-11T11:34:31.858Z,15.63
2018-04-11T11:37:34.319Z,14.97
2018-04-11T11:40:36.782Z,17.07
2018-04-11T11:43:39.245Z,16.93
2018-04-11T11:46:42.469Z,16.70
2018-04-11T11:49:44.935Z,16.97
2018-04-11T11:52:47.382Z,17.63
2018-04-11T11:55:49.862Z,18.07
2018-04-11T11:58:52.321Z,19.73
2018-04-11T12:01:54.794Z,19.73
2018-04-11T12:05:02.015Z,19.93
2018-04-11T12:08:05.257Z,20.17
2018-04-11T12:11:08.778Z,20.77
2018-04-11T12:14:11.243Z,21.27
2018-04-11T12:17:13.698Z,19.97
2018-04-11T12:20:16.162Z,19.80
2018-04-11T12:23:18.626Z,18.93
2018-04-11T12:26:21.086Z,19.33
2018-04-11T12:29:23.541Z,19.30
2018-04-11T12:32:25.993Z,28.80
2018-04-11T12:35:28.458Z,17.87
2018-04-11T12:38:30.916Z,18.53
2018-04-11T12:41:33.365Z,18.73
2018-04-11T12:44:35.845Z,18.37
2018-04-11T12:47:38.302Z,18.73
2018-04-11T12:50:41.539Z,18.20
2018-04-11T12:53:44.745Z,17.47
2018-04-11T12:56:47.194Z,18.27
2018-04-11T12:59:50.414Z,20.97
2018-04-11T13:02:52.874Z,19.07
2018-04-11T13:05:56.092Z,18.60
2018-04-11T13:08:58.545Z,16.70
2018-04-11T13:12:01.762Z,16.47
2018-04-11T13:15:04.242Z,15.93
2018-04-11T13:18:06.717Z,16.63
2018-04-11T13:21:09.202Z,16.03
2018-04-11T13:24:11.662Z,16.40
2018-04-11T13:27:14.117Z,16.03
2018-04-11T13:30:17.351Z,17.20
2018-04-11T13:33:19.813Z,18.00
2018-04-11T13:36:22.281Z,17.17
2018-04-11T13:39:24.750Z,18.53
2018-04-11T13:42:27.970Z,23.47
2018-04-11T13:45:30.435Z,18.53
2018-04-11T13:48:32.893Z,19.03
2018-04-11T13:51:36.127Z,19.33
2018-04-11T13:54:38.584Z,19.07
2018-04-11T13:57:41.047Z,20.27
2018-04-11T14:00:44.283Z,19.23
2018-04-11T14:03:46.746Z,20.77
2018-04-11T14:06:49.197Z,20.13
2018-04-11T14:09:51.654Z,19.30
2018-04-11T14:12:54.877Z,20.17
2018-04-11T14:15:57.337Z,20.50
2018-04-11T14:19:00.565Z,20.20
2018-04-11T14:22:03.025Z,20.33
2018-04-11T14:25:05.469Z,21.87
2018-04-11T14:28:07.926Z,22.20
2018-04-11T14:31:10.389Z,21.17
2018-04-11T14:34:12.858Z,21.03
2018-04-11T14:37:15.317Z,21.07
2018-04-11T14:40:17.768Z,20.00
2018-04-11T14:43:20.993Z,20.57
2018-04-11T14:46:23.442Z,21.73
2018-04-11T14:49:25.906Z,22.87
2018-04-11T14:52:29.129Z,21.30
2018-04-11T14:55:31.581Z,24.13
2018-04-11T14:58:34.798Z,24.07
2018-04-11T15:01:42.258Z,22.17
2018-04-11T15:04:44.710Z,24.27
2018-04-11T15:07:47.162Z,23.07
2018-04-11T15:10:49.626Z,22.80
2018-04-11T15:13:52.070Z,22.67
2018-04-11T15:16:55.296Z,23.20
2018-04-11T15:19:57.749Z,22.33
2018-04-11T15:23:00.969Z,22.80
2018-04-11T15:26:03.428Z,22.33
2018-04-11T15:29:06.650Z,22.20
2018-04-11T15:32:09.114Z,21.77
2018-04-11T15:35:11.570Z,21.07
2018-04-11T15:38:14.827Z,22.43
2018-04-11T15:41:17.278Z,21.03
2018-04-11T15:44:19.737Z,21.07
2018-04-11T15:47:22.178Z,21.53
2018-04-11T15:50:24.642Z,21.30
2018-04-11T15:53:27.094Z,22.20
2018-04-11T15:56:29.546Z,20.37
2018-04-11T15:59:32.002Z,20.17
2018-04-11T16:02:35.220Z,21.47
2018-04-11T16:05:37.670Z,21.27
2018-04-11T16:08:40.910Z,20.17
2018-04-11T16:11:43.390Z,19.93
2018-04-11T16:14:45.850Z,19.60
2018-04-11T16:17:48.312Z,17.27
2018-04-11T16:20:50.759Z,16.07
2018-04-11T16:23:53.207Z,16.37
2018-04-11T16:26:55.653Z,16.93
2018-04-11T16:29:58.116Z,16.60
2018-04-11T16:33:00.557Z,16.47
2018-04-11T16:36:03.022Z,16.77
2018-04-11T16:39:05.466Z,17.87
2018-04-11T16:42:07.930Z,18.80
2018-04-11T16:45:10.387Z,19.87
2018-04-11T16:48:13.602Z,23.67
2018-04-11T16:51:16.108Z,22.20
2018-04-11T16:54:18.558Z,24.10
2018-04-11T16:57:21.009Z,24.93
2018-04-11T17:00:24.242Z,26.00
2018-04-11T17:03:26.698Z,24.83
2018-04-11T17:06:29.154Z,24.80
2018-04-11T17:09:32.388Z,26.87
2018-04-11T17:12:34.821Z,25.13
2018-04-11T17:15:38.053Z,24.83
2018-04-11T17:18:40.501Z,25.80
2018-04-11T17:21:55.477Z,27.83
2018-04-11T17:25:10.529Z,28.10
2018-04-11T17:28:25.751Z,26.67
2018-04-11T17:31:30.141Z,51.80
2018-04-11T17:34:33.357Z,32.53
2018-04-11T17:37:35.820Z,26.63
2018-04-11T17:40:38.279Z,26.30
2018-04-11T17:47:19.658Z,26.97
2018-04-11T17:50:22.106Z,27.87
2018-04-11T17:53:24.553Z,27.67
2018-04-11T17:56:27.027Z,29.07
2018-04-11T17:59:30.234Z,27.50
2018-04-11T18:02:32.691Z,31.70
2018-04-11T18:05:35.922Z,33.70
2018-04-11T18:08:38.369Z,35.73
2018-04-11T18:11:40.837Z,31.10
2018-04-11T18:14:44.062Z,30.17
2018-04-11T18:17:46.518Z,31.80
2018-04-11T18:20:48.985Z,32.20
2018-04-11T18:23:52.224Z,31.60
2018-04-11T18:26:54.683Z,31.70
2018-04-11T18:29:57.176Z,32.73
2018-04-11T18:32:59.601Z,34.60
2018-04-11T18:36:02.819Z,53.43
2018-04-11T18:39:05.273Z,40.13
2018-04-11T18:42:07.742Z,35.23
2018-04-11T18:45:10.206Z,34.70
2018-04-11T18:48:12.662Z,34.90
2018-04-11T18:51:15.123Z,35.20
2018-04-11T18:54:17.580Z,35.10
2018-04-11T18:57:20.029Z,36.30
2018-04-11T19:00:22.482Z,36.27
2018-04-11T19:03:24.951Z,35.07
2018-04-11T19:06:27.402Z,36.20
2018-04-11T19:09:29.849Z,35.37
2018-04-11T19:12:33.074Z,35.20
2018-04-11T19:15:35.542Z,34.37
2018-04-11T19:18:38.035Z,33.50
2018-04-11T19:21:40.626Z,34.80
2018-04-11T19:24:43.133Z,34.57
2018-04-11T19:27:58.085Z,34.63
2018-04-11T19:31:00.546Z,32.27
2018-04-11T19:34:03.274Z,32.30
2018-04-11T19:37:06.578Z,31.90
2018-04-11T19:40:09.843Z,30.73
2018-04-11T19:43:12.318Z,29.90
2018-04-11T19:46:14.785Z,29.27
2018-04-11T19:49:17.241Z,29.13
2018-04-11T19:52:19.708Z,28.90
2018-04-11T19:55:22.158Z,27.93
2018-04-11T19:58:25.386Z,26.83
2018-04-11T20:01:27.848Z,27.10
2018-04-11T20:04:30.293Z,26.00
2018-04-11T20:07:33.525Z,24.27
2018-04-11T20:10:35.970Z,24.30
2018-04-11T20:13:59.913Z,24.07
2018-04-11T20:17:02.372Z,23.97
2018-04-11T20:20:04.833Z,24.30
2018-04-11T20:23:07.291Z,24.23
2018-04-11T20:26:10.530Z,22.73
2018-04-11T20:29:12.972Z,23.57
2018-04-11T20:32:15.433Z,26.07
2018-04-11T20:35:18.650Z,21.20
2018-04-11T20:38:21.132Z,20.83
2018-04-11T20:41:23.582Z,20.60
2018-04-11T20:44:26.801Z,20.00
2018-04-11T20:47:29.267Z,21.13
2018-04-11T20:50:31.733Z,19.37
2018-04-11T20:53:34.957Z,20.00
2018-04-11T20:56:37.422Z,16.03
2018-04-11T20:59:39.888Z,15.93
2018-04-11T21:02:43.109Z,14.97
2018-04-11T21:05:45.570Z,14.17
2018-04-11T21:08:48.039Z,14.77
2018-04-11T21:11:51.258Z,14.27
2018-04-11T21:14:53.722Z,14.53
2018-04-11T21:17:56.185Z,15.47
2018-04-11T21:20:58.634Z,16.20
2018-04-11T21:24:01.094Z,18.53
2018-04-11T21:27:03.558Z,21.13
2018-04-11T21:30:06.018Z,22.13
2018-04-11T21:33:08.478Z,21.60
2018-04-11T21:36:10.969Z,21.13
2018-04-11T21:39:14.167Z,22.73
2018-04-11T21:42:16.626Z,21.80
2018-04-11T21:45:19.073Z,21.27
2018-04-11T21:48:26.981Z,21.73
2018-04-11T21:51:30.189Z,20.30
2018-04-11T21:54:32.657Z,22.07
2018-04-11T21:57:35.878Z,21.20
2018-04-11T22:00:38.331Z,21.10
2018-04-11T22:03:41.545Z,22.67
2018-04-11T22:06:44.016Z,21.17
2018-04-11T22:09:46.463Z,22.60
2018-04-11T22:12:48.931Z,22.03
2018-04-11T22:15:51.382Z,22.20
2018-04-11T22:18:53.841Z,22.27
2018-04-11T22:21:56.301Z,22.43
2018-04-11T22:24:58.754Z,23.37
2018-04-11T22:28:01.221Z,21.40
2018-04-11T22:31:03.669Z,22.93
2018-04-11T22:34:06.134Z,22.00
2018-04-11T22:37:08.591Z,22.80
2018-04-11T22:40:11.062Z,21.63
2018-04-11T22:43:14.264Z,22.13
2018-04-11T22:46:16.736Z,21.47
2018-04-11T22:49:19.218Z,21.47
2018-04-11T22:52:21.684Z,23.03
2018-04-11T22:55:24.134Z,21.30
2018-04-11T22:58:26.588Z,24.20
2018-04-11T23:01:29.042Z,21.03
2018-04-11T23:04:31.498Z,21.17
2018-04-11T23:07:33.974Z,21.37
2018-04-11T23:10:36.433Z,21.10
2018-04-11T23:13:39.672Z,21.47
2018-04-11T23:16:42.122Z,21.93
2018-04-11T23:19:44.597Z,21.60
2018-04-11T23:22:47.037Z,22.03
2018-04-11T23:25:49.482Z,21.03
2018-04-11T23:28:51.950Z,22.00
2018-04-11T23:31:54.405Z,22.43
2018-04-11T23:34:56.866Z,22.47
2018-04-11T23:37:59.319Z,21.43
2018-04-11T23:41:01.770Z,21.17
2018-04-11T23:44:04.230Z,22.30
2018-04-11T23:47:06.693Z,21.93
2018-04-11T23:50:09.146Z,24.93
2018-04-11T23:53:11.607Z,25.47
2018-04-11T23:56:14.058Z,25.07
2018-04-11T23:59:16.626Z,23.33
